Time;durP1;ratioP1;P1;durP2;ratioP2;P2;SDS_P1;SDS_P2;PMS_P1;PMS_P2;Temp;Humidity;BMP_temperature;BMP_pressure;BME280_temperature;BME280_humidity;BME280_pressure;Samples;Min_cycle;Max_cycle;Signal;HPM_P1;HPM_P2
2023/03/27 00:00:33;;;;;;;;;;;;;;;7.12;100.00;98919.34;5051434;28;19917;-76
2023/03/27 00:02:59;;;;;;;;;;;;;;;7.11;100.00;98912.13;5052687;28;20350;-75
2023/03/27 00:05:26;;;;;;;;;;;;;;;7.08;100.00;98907.41;5053212;28;20460;-77
2023/03/27 00:08:00;;;;;;;;;;;;;;;7.07;100.00;98895.31;5052964;28;20280;-76
2023/03/27 00:10:27;;;;;;;;;;;;;;;7.05;100.00;98899.91;5052801;28;19908;-74
2023/03/27 00:12:52;;;;;;;;;;;;;;;7.06;100.00;98896.59;5052445;28;19915;-76
2023/03/27 00:15:19;;;;;;;;;;;;;;;7.07;100.00;98895.31;5052639;28;20003;-76
2023/03/27 00:18:02;;;;;;;;;;;;;;;7.04;100.00;98899.13;5051903;28;19912;-76
2023/03/27 00:20:36;;;;;;;;;;;;;;;7.03;100.00;98891.09;5052639;28;19919;-74
2023/03/27 00:23:01;;;;;;;;;;;;;;;7.02;100.00;98884.69;5051896;28;19913;-75
2023/03/27 00:25:27;;;;;;;;;;;;;;;7.02;100.00;98883.91;5034522;28;19916;-77
2023/03/27 00:27:55;;;;;;;;;;;;;;;7.02;100.00;98875.38;5052293;28;19915;-76
2023/03/27 00:30:20;;;;;;;;;;;;;;;7.02;100.00;98883.91;5050845;28;19919;-75
2023/03/27 00:32:45;;;;;;;;;;;;;;;6.97;100.00;98874.03;5051165;28;19908;-76
2023/03/27 00:35:12;;;;;;;;;;;;;;;6.98;100.00;98875.59;5049427;28;19908;-75
2023/03/27 00:37:43;;;;;;;;;;;;;;;6.96;100.00;98874.53;5051208;28;19920;-76
2023/03/27 00:40:26;;;;;;;;;;;;;;;6.96;100.00;98881.00;5051484;28;20308;-76
2023/03/27 00:42:56;;;;;;;;;;;;;;;6.99;100.00;98876.38;5051302;28;19923;-76
2023/03/27 00:45:23;;;;;;;;;;;;;;;6.97;100.00;98884.63;5051101;28;19913;-76
2023/03/27 00:47:55;;;;;;;;;;;;;;;6.93;100.00;98882.00;5050087;28;20415;-76
2023/03/27 00:50:25;;;;;;;;;;;;;;;6.94;100.00;98886.41;5051113;28;19962;-76
2023/03/27 00:52:51;;;;;;;;;;;;;;;6.98;100.00;98884.09;5051204;28;19966;-76
2023/03/27 00:58:37;;;;;;;;;;;;;;;6.98;100.00;98880.47;5071626;28;20350;-75
2023/03/27 01:01:12;;;;;;;;;;;;;;;6.99;100.00;98877.16;5070104;28;19924;-75
2023/03/27 01:03:38;;;;;;;;;;;;;;;7.07;100.00;98871.81;5102173;28;20421;-75
2023/03/27 01:06:07;;;;;;;;;;;;;;;7.03;100.00;98874.84;5103209;28;20273;-75
2023/03/27 01:08:33;;;;;;;;;;;;;;;7.01;100.00;98873.81;5070267;28;19935;-76
2023/03/27 01:11:14;;;;;;;;;;;;;;;7.01;100.00;98874.59;5069354;28;20286;-76
2023/03/27 01:13:58;;;;;;;;;;;;;;;7.01;100.00;98874.59;5070392;28;19952;-76
2023/03/27 01:16:33;;;;;;;;;;;;;;;6.98;100.00;98866.28;5070573;28;19967;-76
2023/03/27 01:19:27;;;;;;;;;;;;;;;7.00;100.00;98873.03;5070459;28;19913;-76
2023/03/27 01:21:59;;;;;;;;;;;;;;;6.96;100.00;98863.97;5069828;28;19935;-75
2023/03/27 01:24:31;;;;;;;;;;;;;;;6.95;100.00;98861.63;5070638;28;19920;-75
2023/03/27 01:27:36;;;;;;;;;;;;;;;6.95;100.00;98861.63;5070088;28;19971;-76
2023/03/27 01:30:09;;;;;;;;;;;;;;;6.96;100.00;98863.19;5068193;28;19912;-76
2023/03/27 01:32:54;;;;;;;;;;;;;;;6.95;100.00;98864.47;5069883;28;19913;-76
2023/03/27 01:35:54;;;;;;;;;;;;;;;6.95;100.00;98864.47;5070130;28;19913;-76
2023/03/27 01:38:38;;;;;;;;;;;;;;;6.95;100.00;98867.31;5068581;28;20027;-76
2023/03/27 01:41:13;;;;;;;;;;;;;;;6.95;100.00;98868.06;5069687;28;19913;-76
2023/03/27 01:43:55;;;;;;;;;;;;;;;6.94;100.00;98866.53;5069977;28;19920;-76
2023/03/27 01:46:24;;;;;;;;;;;;;;;6.95;100.00;98868.06;5068270;28;19920;-76
2023/03/27 01:48:55;;;;;;;;;;;;;;;6.94;100.00;98862.91;5069864;28;19916;-76
2023/03/27 01:51:28;;;;;;;;;;;;;;;6.95;100.00;98864.47;5068214;28;19916;-76
2023/03/27 01:54:03;;;;;;;;;;;;;;;6.93;100.00;98859.28;5069878;28;20285;-75
2023/03/27 01:56:31;;;;;;;;;;;;;;;6.93;100.00;98861.38;5085113;28;20007;-75
2023/03/27 01:59:06;;;;;;;;;;;;;;;6.93;100.00;98856.44;5110149;28;19912;-75
2023/03/27 02:01:38;;;;;;;;;;;;;;;6.94;100.00;98863.69;5108716;28;19916;-75
2023/03/27 02:04:13;;;;;;;;;;;;;;;6.95;100.00;98862.41;5108814;28;19947;-75
2023/03/27 02:06:40;;;;;;;;;;;;;;;6.96;100.00;98858.28;5109922;28;19950;-75
2023/03/27 02:09:09;;;;;;;;;;;;;;;6.98;100.00;98861.38;5096499;28;20400;-75
2023/03/27 02:11:59;;;;;;;;;;;;;;;7.01;100.00;98854.72;5096564;28;20254;-76
2023/03/27 02:14:29;;;;;;;;;;;;;;;7.02;100.00;98856.28;5096190;28;19947;-76
2023/03/27 02:17:08;;;;;;;;;;;;;;;7.03;100.00;98854.97;5095008;28;19920;-76
2023/03/27 02:19:41;;;;;;;;;;;;;;;7.06;100.00;98853.19;5095954;28;19912;-76
2023/03/27 02:22:08;;;;;;;;;;;;;;;7.06;100.00;98861.72;5094855;28;19916;-76
2023/03/27 02:24:37;;;;;;;;;;;;;;;7.05;100.00;98855.25;5096248;28;19912;-76
2023/03/27 02:27:15;;;;;;;;;;;;;;;7.06;100.00;98867.41;5094543;28;20390;-76
2023/03/27 02:30:03;;;;;;;;;;;;;;;7.05;100.00;98857.31;5095810;28;19978;-76
2023/03/27 02:32:32;;;;;;;;;;;;;;;7.04;100.00;98875.63;5085316;28;19963;-76
2023/03/27 02:35:20;;;;;;;;;;;;;;;7.04;100.00;98861.44;5095722;28;20006;-77
2023/03/27 02:37:58;;;;;;;;;;;;;;;7.04;100.00;98887.00;5094336;28;19916;-77
2023/03/27 02:40:27;;;;;;;;;;;;;;;7.02;100.00;98884.69;5095743;28;20360;-76
2023/03/27 02:43:07;;;;;;;;;;;;;;;7.03;100.00;98888.28;5096033;28;19919;-76
2023/03/27 02:45:57;;;;;;;;;;;;;;;7.02;100.00;98886.72;5095737;28;19996;-76
2023/03/27 02:48:34;;;;;;;;;;;;;;;7.03;100.00;98891.88;5095400;28;20367;-77
2023/03/27 02:51:00;;;;;;;;;;;;;;;7.04;100.00;98896.28;5095770;28;20361;-76
2023/03/27 02:53:35;;;;;;;;;;;;;;;7.04;100.00;98899.13;5095433;28;19920;-77
2023/03/27 02:56:02;;;;;;;;;;;;;;;7.03;100.00;98914.63;5094799;28;20337;-76
2023/03/27 02:58:38;;;;;;;;;;;;;;;6.99;100.00;98910.44;5093978;28;19916;-76
2023/03/27 03:01:09;;;;;;;;;;;;;;;6.95;100.00;98907.84;5095534;28;19912;-75
2023/03/27 03:03:38;;;;;;;;;;;;;;;6.91;100.00;98918.66;5077010;28;19916;-77
2023/03/27 03:06:09;;;;;;;;;;;;;;;6.92;100.00;98917.38;5095456;28;19919;-76
2023/03/27 03:08:38;;;;;;;;;;;;;;;6.88;100.00;98916.78;5093388;28;19955;-76
2023/03/27 03:11:09;;;;;;;;;;;;;;;6.86;100.00;98930.72;5094862;28;20022;-77
2023/03/27 03:13:35;;;;;;;;;;;;;;;6.85;100.00;98934.84;5100501;28;19912;-76
2023/03/27 03:16:01;;;;;;;;;;;;;;;6.81;100.00;98934.28;5094631;28;20069;-76
2023/03/27 03:18:35;;;;;;;;;;;;;;;6.78;100.00;98938.09;5094966;28;19959;-76
2023/03/27 03:21:09;;;;;;;;;;;;;;;6.78;100.00;98940.94;5093784;28;19953;-77
2023/03/27 03:23:34;;;;;;;;;;;;;;;6.65;100.00;98940.56;5094478;28;19919;-76
2023/03/27 03:26:01;;;;;;;;;;;;;;;6.62;100.00;98942.34;5094931;28;19912;-77
2023/03/27 03:28:28;;;;;;;;;;;;;;;6.54;100.00;98952.56;5094997;28;20011;-77
2023/03/27 03:30:54;;;;;;;;;;;;;;;6.50;100.00;98962.56;5094695;28;19958;-77
2023/03/27 03:33:20;;;;;;;;;;;;;;;6.49;100.00;98961.78;5094621;28;19912;-77
2023/03/27 03:35:49;;;;;;;;;;;;;;;6.38;100.00;98969.41;5096860;28;19965;-77
2023/03/27 03:38:29;;;;;;;;;;;;;;;6.29;100.00;98972.34;5096806;28;20333;-76
2023/03/27 03:41:04;;;;;;;;;;;;;;;6.20;100.00;98988.22;5095912;28;19912;-76
2023/03/27 03:43:31;;;;;;;;;;;;;;;6.15;100.00;98988.13;5095293;28;19912;-77
2023/03/27 03:45:58;;;;;;;;;;;;;;;6.03;100.00;98989.28;5094084;28;19912;-76
2023/03/27 03:48:25;;;;;;;;;;;;;;;5.98;100.00;98998.47;5094562;28;19912;-77
2023/03/27 03:50:52;;;;;;;;;;;;;;;5.91;100.00;98996.84;5094098;28;19912;-76
2023/03/27 03:53:19;;;;;;;;;;;;;;;5.89;100.00;99002.22;5093708;28;20012;-77
2023/03/27 03:55:47;;;;;;;;;;;;;;;5.82;100.00;99000.56;5093198;28;19994;-77
2023/03/27 03:58:14;;;;;;;;;;;;;;;5.82;100.00;99005.47;5094663;28;19916;-76
2023/03/27 04:00:42;;;;;;;;;;;;;;;5.72;100.00;99009.69;5093321;28;19965;-76
2023/03/27 04:03:09;;;;;;;;;;;;;;;5.67;100.00;99010.38;5094276;28;19912;-76
2023/03/27 04:05:36;;;;;;;;;;;;;;;5.56;100.00;99005.31;5092720;28;19999;-76
2023/03/27 04:08:02;;;;;;;;;;;;;;;5.49;100.00;99019.88;5092544;28;20015;-76
2023/03/27 04:10:27;;;;;;;;;;;;;;;5.40;100.00;99019.22;5092528;28;20050;-76
2023/03/27 04:12:53;;;;;;;;;;;;;;;5.36;100.00;99030.72;5092637;28;19916;-76
2023/03/27 04:15:18;;;;;;;;;;;;;;;5.28;100.00;99023.88;5092572;28;19916;-76
2023/03/27 04:17:47;;;;;;;;;;;;;;;5.18;100.00;99030.91;5093845;28;19923;-76
2023/03/27 04:20:14;;;;;;;;;;;;;;;5.16;100.00;99039.88;5093370;28;19940;-76
2023/03/27 04:22:45;;;;;;;;;;;;;;;5.06;100.00;99046.91;5092641;28;19915;-76
2023/03/27 04:25:12;;;;;;;;;;;;;;;4.91;100.00;99049.72;5092206;28;19999;-77
2023/03/27 04:27:43;;;;;;;;;;;;;;;4.85;100.00;99059.38;5078905;28;19916;-77
2023/03/27 04:30:14;;;;;;;;;;;;;;;4.76;100.00;99062.28;5087770;28;19921;-77
2023/03/27 04:32:45;;;;;;;;;;;;;;;4.62;100.00;99057.34;5071939;28;19920;-76
2023/03/27 04:35:11;;;;;;;;;;;;;;;4.51;100.00;99074.88;5072099;28;20369;-76
2023/03/27 04:37:40;;;;;;;;;;;;;;;4.36;100.00;99091.78;5072653;28;19924;-78
2023/03/27 04:40:06;;;;;;;;;;;;;;;4.26;100.00;99095.94;5072644;28;19938;-77
2023/03/27 04:42:35;;;;;;;;;;;;;;;4.08;100.00;99096.78;5087515;28;19916;-77
2023/03/27 04:45:01;;;;;;;;;;;;;;;3.95;100.00;99101.09;5073366;28;19940;-76
2023/03/27 04:47:28;;;;;;;;;;;;;;;3.84;100.00;99098.75;5073451;28;19913;-78
2023/03/27 04:49:57;;;;;;;;;;;;;;;3.73;100.00;99112.59;5073192;28;19919;-78
2023/03/27 04:52:24;;;;;;;;;;;;;;;3.65;100.00;99114.97;5073542;28;19913;-78
2023/03/27 04:54:50;;;;;;;;;;;;;;;3.50;100.00;99122.53;5073148;28;19912;-78
2023/03/27 04:57:17;;;;;;;;;;;;;;;3.35;100.00;99130.09;5071460;28;19920;-77
2023/03/27 04:59:43;;;;;;;;;;;;;;;3.15;100.00;99136.22;5073028;28;19934;-77
2023/03/27 05:02:09;;;;;;;;;;;;;;;2.98;100.00;99134.94;5073112;28;20366;-76
2023/03/27 05:04:37;;;;;;;;;;;;;;;2.87;100.00;99154.41;5073553;28;19916;-78
2023/03/27 05:07:04;;;;;;;;;;;;;;;2.79;100.00;99158.75;5073359;28;19966;-76
2023/03/27 05:09:29;;;;;;;;;;;;;;;2.66;100.00;99158.91;5072984;28;19913;-76
2023/03/27 05:12:00;;;;;;;;;;;;;;;2.59;100.00;99169.69;5073267;28;19912;-79
2023/03/27 05:14:26;;;;;;;;;;;;;;;2.52;100.00;99182.06;5073451;28;19912;-77
2023/03/27 05:16:51;;;;;;;;;;;;;;;2.44;100.00;99191.28;5088133;28;19939;-74
2023/03/27 05:19:18;;;;;;;;;;;;;;;2.31;100.00;99192.16;5073177;28;20278;-77
2023/03/27 05:21:45;;;;;;;;;;;;;;;2.19;100.00;99195.84;5088404;28;19947;-78
2023/03/27 05:24:11;;;;;;;;;;;;;;;2.14;100.00;99204.94;5088247;28;20426;-75
2023/03/27 05:26:37;;;;;;;;;;;;;;;2.16;100.00;99208.06;5088625;28;19956;-75
2023/03/27 05:29:04;;;;;;;;;;;;;;;2.14;100.00;99216.22;5088139;28;20285;-76
2023/03/27 05:31:30;;;;;;;;;;;;;;;2.22;100.00;99228.75;5071886;28;19912;-74
2023/03/27 05:33:55;;;;;;;;;;;;;;;2.20;100.00;99222.00;5072516;28;19920;-74
2023/03/27 05:36:23;;;;;;;;;;;;;;;2.26;100.00;99237.84;5072570;28;19959;-73
2023/03/27 05:38:49;;;;;;;;;;;;;;;2.33;100.00;99242.44;5072355;28;19912;-74
2023/03/27 05:41:14;;;;;;;;;;;;;;;2.35;100.00;99248.38;5070465;28;20007;-73
2023/03/27 05:43:40;;;;;;;;;;;;;;;2.23;100.00;99258.53;5074393;28;19913;-73
2023/03/27 05:46:06;;;;;;;;;;;;;;;2.24;100.00;99268.53;5076435;28;19966;-73
2023/03/27 05:48:31;;;;;;;;;;;;;;;2.16;100.00;99274.91;5091928;28;19916;-74
2023/03/27 05:50:57;;;;;;;;;;;;;;;2.07;100.00;99286.13;5074871;28;19913;-77
2023/03/27 05:53:22;;;;;;;;;;;;;;;2.02;100.00;99295.97;5076123;28;19913;-75
2023/03/27 05:55:47;;;;;;;;;;;;;;;2.01;100.00;99302.03;5074578;28;19916;-77
2023/03/27 05:58:13;;;;;;;;;;;;;;;2.04;100.00;99315.22;5075918;28;19924;-76
2023/03/27 06:00:41;;;;;;;;;;;;;;;1.91;100.00;99315.28;5076112;28;19969;-78
2023/03/27 06:03:07;;;;;;;;;;;;;;;1.76;100.00;99323.44;5076269;28;19920;-79
2023/03/27 06:05:32;;;;;;;;;;;;;;;1.66;100.00;99332.28;5091755;28;20002;-78
2023/03/27 06:07:58;;;;;;;;;;;;;;;1.61;100.00;99349.75;5076332;28;19912;-81
2023/03/27 06:10:23;;;;;;;;;;;;;;;1.50;100.00;99364.22;5075933;28;20077;-80
2023/03/27 06:12:49;;;;;;;;;;;;;;;1.43;100.00;99362.41;5075792;28;19932;-81
2023/03/27 06:15:14;;;;;;;;;;;;;;;1.33;100.00;99362.78;5091754;28;19920;-79
2023/03/27 06:17:41;;;;;;;;;;;;;;;1.27;100.00;99370.19;5076723;28;20373;-78
2023/03/27 06:20:14;;;;;;;;;;;;;;;1.17;100.00;99389.00;5076138;28;19919;-80
2023/03/27 06:22:45;;;;;;;;;;;;;;;1.15;100.00;99379.47;5075648;28;19919;-78
2023/03/27 06:25:11;;;;;;;;;;;;;;;1.03;100.00;99398.69;5075647;28;19913;-78
2023/03/27 06:27:36;;;;;;;;;;;;;;;1.06;100.00;99399.81;5091159;28;19912;-77
2023/03/27 06:30:02;;;;;;;;;;;;;;;0.97;100.00;99408.13;5075873;28;19912;-81
2023/03/27 06:32:27;;;;;;;;;;;;;;;0.93;100.00;99413.09;5075588;28;20388;-77
2023/03/27 06:34:53;;;;;;;;;;;;;;;0.88;100.00;99419.28;5075326;28;19962;-77
2023/03/27 06:37:18;;;;;;;;;;;;;;;0.80;100.00;99427.16;5091213;28;19917;-77
2023/03/27 06:39:44;;;;;;;;;;;;;;;0.82;100.00;99429.50;5075816;28;20305;-79
2023/03/27 06:42:09;;;;;;;;;;;;;;;0.63;100.00;99428.47;5075583;28;19913;-79
2023/03/27 06:44:35;;;;;;;;;;;;;;;0.41;100.00;99431.13;5074008;28;19912;-79
2023/03/27 06:47:00;;;;;;;;;;;;;;;0.34;100.00;99436.13;5075226;28;19912;-78
2023/03/27 06:49:26;;;;;;;;;;;;;;;0.21;100.00;99441.72;5075062;28;19912;-80
2023/03/27 06:51:51;;;;;;;;;;;;;;;0.23;100.00;99446.88;5075628;28;20322;-79
2023/03/27 06:54:16;;;;;;;;;;;;;;;0.35;100.00;99460.19;5075343;28;19948;-76
2023/03/27 06:56:43;;;;;;;;;;;;;;;0.40;100.00;99454.81;5073494;28;19928;-77
2023/03/27 06:59:08;;;;;;;;;;;;;;;0.53;100.00;99463.28;5075168;28;20014;-78
2023/03/27 07:01:33;;;;;;;;;;;;;;;0.60;100.00;99463.88;5074913;28;19919;-76
2023/03/27 07:03:59;;;;;;;;;;;;;;;0.67;100.00;99467.69;5074876;28;19983;-77
2023/03/27 07:06:24;;;;;;;;;;;;;;;0.74;100.00;99471.09;5075110;28;19912;-76
2023/03/27 07:08:49;;;;;;;;;;;;;;;0.81;100.00;99478.56;5075227;28;19912;-77
2023/03/27 07:11:15;;;;;;;;;;;;;;;0.97;100.00;99490.50;5090757;28;19923;-80
2023/03/27 07:13:40;;;;;;;;;;;;;;;1.10;100.00;99487.72;5074687;28;19955;-78
2023/03/27 07:16:06;;;;;;;;;;;;;;;1.28;100.00;99484.34;5074604;28;20011;-81
2023/03/27 07:18:31;;;;;;;;;;;;;;;1.40;100.00;99497.63;5074680;28;19916;-79
2023/03/27 07:20:56;;;;;;;;;;;;;;;1.63;100.00;99496.50;5075122;28;20045;-81
2023/03/27 07:23:22;;;;;;;;;;;;;;;1.73;100.00;99496.16;5075010;28;19996;-81
2023/03/27 07:25:48;;;;;;;;;;;;;;;1.71;100.00;99452.78;5074820;28;19920;-80
2023/03/27 07:28:15;;;;;;;;;;;;;;;2.15;100.00;99499.53;5074482;28;19913;-77
2023/03/27 07:30:41;;;;;;;;;;;;;;;2.29;100.00;99507.50;5074535;28;19913;-78
2023/03/27 07:33:08;;;;;;;;;;;;;;;2.48;100.00;99502.03;5074108;28;19919;-77
2023/03/27 07:35:33;;;;;;;;;;;;;;;2.52;100.00;99514.75;5074209;28;19912;-80
2023/03/27 07:37:58;;;;;;;;;;;;;;;2.62;100.00;99507.16;5074201;28;19923;-82
2023/03/27 07:40:25;;;;;;;;;;;;;;;2.65;100.00;99525.97;5090145;28;19913;-81
2023/03/27 07:42:50;;;;;;;;;;;;;;;2.76;100.00;99506.63;5090090;28;19912;-79
2023/03/27 07:45:16;;;;;;;;;;;;;;;2.89;100.00;99527.09;5074184;28;19920;-78
2023/03/27 07:47:42;;;;;;;;;;;;;;;3.04;100.00;99528.13;5074022;28;20440;-78
2023/03/27 07:50:09;;;;;;;;;;;;;;;3.18;100.00;99527.59;5073684;28;20054;-78
2023/03/27 07:52:35;;;;;;;;;;;;;;;3.27;100.00;99531.75;5089640;28;19995;-77
2023/03/27 07:55:01;;;;;;;;;;;;;;;3.42;100.00;99530.72;5074089;28;19920;-77
2023/03/27 07:57:26;;;;;;;;;;;;;;;3.64;100.00;99528.63;5073610;28;19920;-79
2023/03/27 07:59:51;;;;;;;;;;;;;;;3.79;100.00;99531.66;5074696;28;19979;-80
2023/03/27 08:02:16;;;;;;;;;;;;;;;3.93;100.00;99530.31;5089362;28;20315;-79
2023/03/27 08:04:42;;;;;;;;;;;;;;;4.11;100.00;99536.03;5089051;28;19919;-81
2023/03/27 08:07:08;;;;;;;;;;;;;;;4.20;100.00;99532.44;5104588;28;19920;-80
2023/03/27 08:09:34;;;;;;;;;;;;;;;4.25;100.00;99552.41;5104914;28;19923;-80
2023/03/27 08:11:59;;;;;;;;;;;;;;;4.32;100.00;99540.78;5104706;28;19916;-79
2023/03/27 08:14:25;;;;;;;;;;;;;;;4.37;100.00;99536.53;5099420;28;19916;-81
2023/03/27 08:16:50;;;;;;;;;;;;;;;4.50;100.00;99542.84;5100239;28;19974;-79
2023/03/27 08:19:17;;;;;;;;;;;;;;;4.59;100.00;99533.56;5085237;28;19916;-79
2023/03/27 08:21:42;;;;;;;;;;;;;;;4.63;100.00;99543.47;5093046;28;20357;-78
2023/03/27 08:24:08;;;;;;;;;;;;;;;4.66;100.00;99553.84;5074261;28;19973;-80
2023/03/27 08:26:33;;;;;;;;;;;;;;;4.60;100.00;99544.44;5092899;28;20048;-78
2023/03/27 08:28:58;;;;;;;;;;;;;;;4.59;100.00;99553.38;5093418;28;19919;-81
2023/03/27 08:31:24;;;;;;;;;;;;;;;4.42;100.00;99564.97;5092605;28;20361;-80
2023/03/27 08:33:50;;;;;;;;;;;;;;;4.36;100.00;99560.44;5093130;28;19954;-79
2023/03/27 08:36:15;;;;;;;;;;;;;;;4.40;100.00;99561.06;5074559;28;20010;-79
2023/03/27 08:38:41;;;;;;;;;;;;;;;4.41;100.00;99554.16;5090991;28;19916;-79
2023/03/27 08:41:15;;;;;;;;;;;;;;;4.42;100.00;99564.19;5091416;28;19923;-78
2023/03/27 08:43:41;;;;;;;;;;;;;;;4.46;100.00;99571.28;5091651;28;20357;-80
2023/03/27 08:46:15;;;;;;;;;;;;;;;4.29;100.00;99558.69;5074421;28;19912;-78
2023/03/27 08:48:41;;;;;;;;;;;;;;;4.27;100.00;99558.34;5095970;28;20361;-79
2023/03/27 08:51:08;;;;;;;;;;;;;;;4.40;100.00;99556.19;5112963;28;19911;-78
2023/03/27 08:53:39;;;;;;;;;;;;;;;4.56;100.00;99562.81;5093891;28;19946;-79
2023/03/27 08:56:05;;;;;;;;;;;;;;;4.59;100.00;99568.31;5112638;28;19959;-78
2023/03/27 08:58:32;;;;;;;;;;;;;;;4.62;100.00;99577.88;5111740;28;19993;-79
2023/03/27 09:01:10;;;;;;;;;;;;;;;4.58;100.00;99580.09;5112855;28;19912;-79
2023/03/27 09:03:54;;;;;;;;;;;;;;;4.58;100.00;99586.53;5112711;28;19938;-80
2023/03/27 09:06:23;;;;;;;;;;;;;;;4.56;100.00;99591.09;5112639;28;19957;-82
2023/03/27 09:08:48;;;;;;;;;;;;;;;4.51;100.00;99584.03;5111288;28;19918;-80
2023/03/27 09:11:29;;;;;;;;;;;;;;;4.45;100.00;99595.19;5112576;28;19912;-82
2023/03/27 09:13:54;;;;;;;;;;;;;;;4.38;100.00;99611.66;5113001;28;19912;-81
2023/03/27 09:16:32;;;;;;;;;;;;;;;4.29;100.00;99608.78;5112665;28;19918;-79
2023/03/27 09:19:09;;;;;;;;;;;;;;;4.24;100.00;99612.22;5108561;28;19920;-80
2023/03/27 09:21:42;;;;;;;;;;;;;;;4.25;100.00;99603.28;5077970;28;19961;-81
2023/03/27 09:24:10;;;;;;;;;;;;;;;4.30;100.00;99601.88;5094796;28;19951;-81
2023/03/27 09:26:36;;;;;;;;;;;;;;;4.23;100.00;99614.28;5096588;28;19912;-80
2023/03/27 09:29:09;;;;;;;;;;;;;;;4.20;100.00;99615.22;5096659;28;20018;-81
2023/03/27 09:31:39;;;;;;;;;;;;;;;4.06;100.00;99629.94;5096617;28;19918;-79
2023/03/27 09:34:06;;;;;;;;;;;;;;;4.00;100.00;99632.56;5095173;28;19947;-81
2023/03/27 09:36:31;;;;;;;;;;;;;;;3.94;100.00;99639.28;5101892;28;19912;-79
2023/03/27 09:39:00;;;;;;;;;;;;;;;3.93;100.00;99632.06;5114585;28;19964;-80
2023/03/27 09:41:27;;;;;;;;;;;;;;;3.92;100.00;99648.22;5098535;28;20004;-80
2023/03/27 09:43:55;;;;;;;;;;;;;;;3.91;100.00;99657.97;5114337;28;19912;-78
2023/03/27 09:46:21;;;;;;;;;;;;;;;3.99;100.00;99659.25;5115919;28;19911;-83
2023/03/27 09:49:01;;;;;;;;;;;;;;;4.03;100.00;99656.28;5098715;28;19935;-82
2023/03/27 09:51:40;;;;;;;;;;;;;;;4.14;100.00;99653.81;5117270;28;19954;-77
2023/03/27 09:54:06;;;;;;;;;;;;;;;4.33;100.00;99660.34;5098578;28;20002;-79
2023/03/27 09:56:37;;;;;;;;;;;;;;;4.46;100.00;99673.09;5116582;28;20448;-80
2023/03/27 09:59:10;;;;;;;;;;;;;;;4.59;100.00;99675.03;5098410;28;19912;-79
2023/03/27 10:01:37;;;;;;;;;;;;;;;4.68;100.00;99686.38;5115822;28;19912;-78
2023/03/27 10:04:12;;;;;;;;;;;;;;;4.70;100.00;99687.50;5115689;28;19984;-78
2023/03/27 10:06:48;;;;;;;;;;;;;;;4.73;100.00;99689.38;5116675;28;19912;-79
2023/03/27 10:09:25;;;;;;;;;;;;;;;4.91;100.00;99695.06;5115149;28;20436;-78
2023/03/27 10:11:50;;;;;;;;;;;;;;;5.00;100.00;99697.16;5116780;28;19957;-78
2023/03/27 10:14:17;;;;;;;;;;;;;;;5.08;100.00;99717.44;5115227;28;19915;-78
2023/03/27 10:16:44;;;;;;;;;;;;;;;5.04;99.30;99716.81;5116423;28;19919;-79
2023/03/27 10:19:24;;;;;;;;;;;;;;;4.92;96.09;99730.63;5114968;28;19919;-79
2023/03/27 10:21:49;;;;;;;;;;;;;;;4.85;97.47;99713.94;5114769;28;19919;-78
2023/03/27 10:24:27;;;;;;;;;;;;;;;4.87;98.42;99722.75;5115217;28;19916;-79
2023/03/27 10:26:53;;;;;;;;;;;;;;;4.98;99.33;99727.97;5116879;28;19922;-80
2023/03/27 10:29:23;;;;;;;;;;;;;;;4.99;97.64;99728.75;5097948;28;19912;-80
2023/03/27 10:31:50;;;;;;;;;;;;;;;5.01;98.55;99735.50;5116561;28;19911;-81
2023/03/27 10:34:35;;;;;;;;;;;;;;;5.10;100.00;99735.53;5116569;28;19912;-80
2023/03/27 10:37:01;;;;;;;;;;;;;;;5.10;100.00;99731.94;5116537;28;19916;-80
2023/03/27 10:39:28;;;;;;;;;;;;;;;5.05;100.00;99739.00;5114743;28;20016;-79
2023/03/27 10:41:53;;;;;;;;;;;;;;;5.04;100.00;99739.47;5097845;28;20045;-79
2023/03/27 10:44:19;;;;;;;;;;;;;;;5.12;99.95;99732.22;5114831;28;20350;-78
2023/03/27 10:46:44;;;;;;;;;;;;;;;5.18;95.93;99742.47;5114597;28;19916;-81
2023/03/27 10:49:13;;;;;;;;;;;;;;;5.31;96.49;99745.94;5114768;28;19919;-82
2023/03/27 10:51:38;;;;;;;;;;;;;;;5.42;90.28;99764.53;5117020;28;19912;-82
2023/03/27 10:54:06;;;;;;;;;;;;;;;5.40;88.37;99764.22;5116623;28;19912;-84
2023/03/27 10:56:55;;;;;;;;;;;;;;;5.27;89.40;99750.97;5115040;28;19930;-83
2023/03/27 10:59:36;;;;;;;;;;;;;;;5.28;92.61;99749.72;5107689;28;20003;-84
2023/03/27 11:02:03;;;;;;;;;;;;;;;5.40;92.45;99750.81;5114684;28;20411;-82
2023/03/27 11:04:29;;;;;;;;;;;;;;;5.49;89.55;99767.84;5104492;28;20245;-84
2023/03/27 11:06:56;;;;;;;;;;;;;;;5.63;90.41;99755.88;5124029;28;19912;-85
2023/03/27 11:09:26;;;;;;;;;;;;;;;5.79;90.10;99764.03;5124407;28;20036;-84
2023/03/27 11:11:51;;;;;;;;;;;;;;;5.90;87.11;99769.25;5120799;28;19912;-84
2023/03/27 11:14:21;;;;;;;;;;;;;;;6.06;88.97;99770.97;5116662;28;19912;-81
2023/03/27 11:16:48;;;;;;;;;;;;;;;6.39;86.96;99771.06;5115096;28;20434;-82
2023/03/27 11:19:21;;;;;;;;;;;;;;;6.69;85.18;99772.84;5114272;28;19922;-82
2023/03/27 11:21:51;;;;;;;;;;;;;;;7.09;80.71;99789.56;5114118;28;20353;-88
2023/03/27 11:24:21;;;;;;;;;;;;;;;7.31;74.66;99806.34;5099986;28;19920;-84
2023/03/27 11:26:56;;;;;;;;;;;;;;;7.50;70.17;99808.56;5094414;28;20362;-85
2023/03/27 11:29:24;;;;;;;;;;;;;;;7.49;67.41;99812.69;5094358;28;19923;-85
2023/03/27 11:31:50;;;;;;;;;;;;;;;7.58;72.76;99789.09;5094205;28;19912;-85
2023/03/27 11:34:35;;;;;;;;;;;;;;;7.67;71.52;99796.78;5094299;28;20319;-83
2023/03/27 11:37:01;;;;;;;;;;;;;;;7.66;73.79;99803.72;5093137;28;19931;-84
2023/03/27 11:39:29;;;;;;;;;;;;;;;7.62;71.68;99801.06;5094419;28;19912;-83
2023/03/27 11:41:57;;;;;;;;;;;;;;;7.57;72.62;99796.03;5094181;28;19912;-80
2023/03/27 11:44:23;;;;;;;;;;;;;;;7.46;69.55;99810.03;5076337;28;20402;-80
2023/03/27 11:47:07;;;;;;;;;;;;;;;7.40;71.39;99815.59;5093382;28;19946;-80
2023/03/27 11:49:32;;;;;;;;;;;;;;;7.40;69.41;99807.06;5093932;28;20390;-80
2023/03/27 11:52:13;;;;;;;;;;;;;;;7.56;70.73;99813.59;5094460;28;20003;-80
2023/03/27 11:54:41;;;;;;;;;;;;;;;7.72;68.59;99811.09;5094213;28;19918;-78
2023/03/27 11:57:19;;;;;;;;;;;;;;;7.81;68.57;99802.50;5094608;28;19927;-79
2023/03/27 12:00:00;;;;;;;;;;;;;;;7.96;63.57;99814.69;5092686;28;20319;-78
2023/03/27 12:02:28;;;;;;;;;;;;;;;8.22;66.61;99820.66;5094371;28;19981;-79
2023/03/27 12:04:58;;;;;;;;;;;;;;;8.42;60.35;99820.00;5094058;28;19976;-81
2023/03/27 12:07:23;;;;;;;;;;;;;;;8.30;58.26;99830.41;5092754;28;20276;-83
2023/03/27 12:09:51;;;;;;;;;;;;;;;8.07;60.75;99822.66;5093906;28;20382;-80
2023/03/27 12:12:32;;;;;;;;;;;;;;;8.06;62.78;99815.41;5093575;28;19965;-80
2023/03/27 12:15:03;;;;;;;;;;;;;;;7.97;56.78;99836.19;5093920;28;19935;-75
2023/03/27 12:17:38;;;;;;;;;;;;;;;7.67;54.30;99833.75;5093610;28;19916;-75
2023/03/27 12:20:12;;;;;;;;;;;;;;;7.44;57.58;99833.25;5093542;28;19919;-75
2023/03/27 12:22:43;;;;;;;;;;;;;;;7.28;57.77;99842.16;5092616;28;19918;-77
2023/03/27 12:25:27;;;;;;;;;;;;;;;7.09;60.32;99835.78;5092490;28;19912;-75
2023/03/27 12:28:01;;;;;;;;;;;;;;;7.06;58.78;99838.81;5093043;28;20023;-76
2023/03/27 12:30:30;;;;;;;;;;;;;;;7.17;60.16;99826.94;5093068;28;19919;-75
2023/03/27 12:33:14;;;;;;;;;;;;;;;7.34;58.86;99826.03;5093042;28;19942;-76
2023/03/27 12:35:46;;;;;;;;;;;;;;;7.52;59.86;99825.16;5092888;28;19912;-76
2023/03/27 12:38:14;;;;;;;;;;;;;;;7.52;58.18;99834.44;5091277;28;20028;-78
2023/03/27 12:40:40;;;;;;;;;;;;;;;7.37;55.98;99835.66;5073158;28;20314;-78
2023/03/27 12:43:09;;;;;;;;;;;;;;;7.21;58.67;99838.91;5089834;28;19913;-77
2023/03/27 12:45:35;;;;;;;;;;;;;;;7.13;61.77;99832.00;5089768;28;19912;-76
2023/03/27 12:48:10;;;;;;;;;;;;;;;7.30;63.63;99831.13;5091112;28;19935;-79
2023/03/27 12:50:50;;;;;;;;;;;;;;;7.58;62.63;99828.88;5091611;28;19912;-76
2023/03/27 12:53:41;;;;;;;;;;;;;;;7.88;60.60;99836.25;5091565;28;20001;-76
2023/03/27 12:56:16;;;;;;;;;;;;;;;8.27;59.65;99833.41;5089564;28;19947;-77
2023/03/27 12:58:45;;;;;;;;;;;;;;;8.51;55.63;99841.91;5093183;28;20337;-77
2023/03/27 13:01:11;;;;;;;;;;;;;;;8.60;55.78;99847.50;5091775;28;20393;-77
2023/03/27 13:03:39;;;;;;;;;;;;;;;8.61;52.16;99863.28;5091947;28;19912;-76